Celebrity Infinity — 9HJD9 — position and weather

sailwx.info

Track history (hours):
 
Tides and Currents Weather Stations Pressure Air Temp Water Temp Dewpoint Dewpoint Depression Visibility Wind Speed Wind Dir Waves Ship Positions

Celebrity Infinity

Last reported at 2018-May-27 03:31 UTC. Time now 2018-May-27 03:37 UTC.
Position N 48°34' W 123°13'.

Length 294 m; draft 8.3 m.

Type: Ship. MMSI: 249048000.

Date/timePositionNaut miles runAvg speedWind from/ knotsBaromVisibWave heightAir tempDewpointWater temp
2018-May-27 03:31N 48°34' W 123°13'4 8.9
2018-May-27 03:00N 48°30' W 123°11'610.8
2018-May-27 02:30N 48°24' W 123°11'510.9
2018-May-27 02:00N 48°22' W 123°18'2 0.4
2018-May-26 21:00N 48°24' W 123°18'0 0.0 020 1017.0 5.4 25.023.611.0
2018-May-26 19:00N 48°24' W 123°18'4 0.9 220 / 151017.0 5.4 10.0 10.0
2018-May-26 14:45N 48°25' W 123°23'0 0.0
2018-May-26 14:29N 48°25' W 123°23'1 2.4
2018-May-26 14:00N 48°24' W 123°25'4 7.4
2018-May-26 13:30N 48°20' W 123°24'4 7.8
2018-May-26 13:00N 48°17' W 123°26'4 7.5
2018-May-26 12:30N 48°13' W 123°29'3 5.7
2018-May-26 11:58N 48°13' W 123°33'3 5.7
2018-May-26 11:26N 48°14' W 123°38'3 6.2
2018-May-26 10:54N 48°14' W 123°43'2 6.1
2018-May-26 10:30N 48°14' W 123°46'3 6.7
2018-May-26 10:00N 48°12' W 123°42'6678.9 020 / 61016.0 5.4 25.023.610.0
2018-May-26 09:59N 48°14' W 123°51'3 5.3
2018-May-26 09:29N 48°14' W 123°55'3 5.6
2018-May-26 08:57N 48°15' W 123°59'3 5.5
2018-May-26 08:29N 48°17' W 123°58'816.7
2018-May-26 08:00N 48°12' W 123°48'688.0 020 / 61015.0 5.4 24.022.610.0
2018-May-26 07:55N 48°17' W 123°53'3 5.8
2018-May-26 07:29N 48°17' W 123°49'17 7.0
2018-May-26 05:00N 48°12' W 123°24'1 1.5 290 / 201014.0 5.4 10.0 10.0
2018-May-26 04:34N 48°12' W 123°25'0 5.8
2018-May-26 04:30N 48°12' W 123°24'3 5.7
2018-May-26 03:57N 48°10' W 123°21'910.8
2018-May-26 03:08N 48°12' W 123°08'319.0
2018-May-26 02:59N 48°12' W 123°04'2020.1
2018-May-26 02:00N 48°06' W 122°36'526.1 290 / 301012.010.8 25.123.611.4
2018-May-26 01:48N 48°01' W 122°37'621.1
2018-May-26 01:30N 47°56' W 122°31'1019.9
2018-May-26 01:00N 47°47' W 122°26'5317.9
2018-May-26 01:00N 47°42' W 122°24'4 8.8 300 / 181012.010.8 25.023.612.6
2018-May-26 00:30N 47°38' W 122°26'3 6.4
2018-May-25 23:58N 47°37' W 122°21'0 0.0
2018-May-25 23:28N 47°37' W 122°21'0 0.0
2018-May-25 22:58N 47°37' W 122°21'0 0.0
2018-May-25 22:30N 47°37' W 122°21'0 0.0
2018-May-25 22:00N 47°37' W 122°21'2185.7
2018-May-25 22:00N 47°36' W 122°18'2 4.5 010 1013.0 5.4 26.024.612.0
2018-May-25 21:30N 47°37' W 122°21'0 0.0
2018-May-25 21:00N 47°37' W 122°21'0 0.0
2018-May-25 20:30N 47°37' W 122°21'0 0.0
2018-May-25 19:59N 47°37' W 122°21'0 0.0
2018-May-25 19:29N 47°37' W 122°21'2 4.5
2018-May-25 19:00N 47°36' W 122°18'2221.8 270 / 51013.0 5.4 11.0 12.0
2018-May-25 18:59N 47°37' W 122°21'0 0.0
2018-May-25 18:29N 47°37' W 122°21'0 0.0
2018-May-25 17:58N 47°37' W 122°21'0 0.0
2018-May-25 17:25N 47°37' W 122°21'0 0.0
2018-May-25 16:58N 47°37' W 122°21'0 0.0
2018-May-25 16:28N 47°37' W 122°21'0 0.0
2018-May-25 15:58N 47°37' W 122°21'0 0.0
2018-May-25 15:30N 47°37' W 122°21'0 0.0
2018-May-25 15:00N 47°37' W 122°21'0 0.0
2018-May-25 14:30N 47°37' W 122°21'0 0.0
2018-May-25 14:00N 47°37' W 122°21'0 0.0
2018-May-25 13:30N 47°37' W 122°21'1 2.2
2018-May-25 13:00N 47°36' W 122°23'5 9.5
2018-May-25 12:30N 47°39' W 122°28'5 9.4
2018-May-25 12:00N 47°44' W 122°27'8512.1
2018-May-25 12:00N 47°36' W 122°24'1327.7 290 / 101013.410.8 24.223.912.9
2018-May-25 11:30N 47°49' W 122°28'510.8
2018-May-25 11:00N 47°54' W 122°30'510.1
2018-May-25 10:28N 47°58' W 122°36'511.1
2018-May-25 10:00N 48°03' W 122°39'910.1
2018-May-25 09:04N 48°10' W 122°48'1 9.9
2018-May-25 09:00N 48°10' W 122°49'6459.3
2018-May-25 09:00N 48°06' W 122°42'1122.2 010 / 111013.0 5.4 24.022.611.0
2018-May-25 08:30N 48°11' W 122°57'611.4
2018-May-25 08:00N 48°06' W 123°00'783.0 030 / 101013.0 5.4 24.022.611.0
2018-May-25 07:54N 48°12' W 123°06'610.6
2018-May-25 07:20N 48°11' W 123°15'410.8
2018-May-25 06:57N 48°10' W 123°21'12 7.4
2018-May-25 05:17N 48°13' W 123°39'3 9.0
2018-May-25 05:00N 48°12' W 123°42'216.5 290 / 261014.0 5.4 10.0 10.0
2018-May-25 04:53N 48°13' W 123°44'5 8.5
2018-May-25 04:18N 48°13' W 123°51'3 8.6
2018-May-25 04:00N 48°14' W 123°55'4 8.7
2018-May-25 03:29N 48°15' W 124°01'4 8.3
2018-May-25 03:00N 48°17' W 124°07'52298.8
2018-May-25 03:00N 48°12' W 124°06'816.1 350 / 501014.8 5.4 25.523.415.2
2018-May-25 02:30N 48°19' W 124°12'4 8.5
2018-May-25 02:00N 48°20' W 124°18'4 8.5
2018-May-25 01:30N 48°22' W 124°24'4 8.5
2018-May-25 01:00N 48°24' W 124°30'4 8.0
2018-May-25 00:30N 48°26' W 124°35'4 7.5
2018-May-25 00:00N 48°27' W 124°40'4 7.9
2018-May-24 23:30N 48°29' W 124°46'4 8.0
2018-May-24 23:00N 48°29' W 124°52'5955.0
2018-May-24 23:00N 48°24' W 124°54'510.8 010 / 71016.0 5.4 25.023.611.0
2018-May-24 22:30N 48°29' W 124°58'4 7.9
2018-May-24 22:00N 48°29' W 125°04'5292.5
2018-May-24 22:00N 48°24' W 125°06'5 9.4 010 / 71016.0 5.4 25.023.612.0
2018-May-24 21:28N 48°28' W 125°10'4 7.7
2018-May-24 21:00N 48°27' W 125°15'4 7.8
2018-May-24 20:30N 48°25' W 125°20'4 8.4
2018-May-24 20:00N 48°23' W 125°25'4 8.8
2018-May-24 19:30N 48°20' W 125°31'4 8.9
2018-May-24 19:00N 48°19' W 125°37'7611.7
2018-May-24 19:00N 48°12' W 125°36'713.7 300 / 151016.0 5.4 12.0 13.0
2018-May-24 18:30N 48°17' W 125°43'4 6.7
2018-May-24 17:58N 48°13' W 125°45'4 7.6
2018-May-24 17:29N 48°10' W 125°42'23 9.4
2018-May-24 15:00N 47°48' W 125°30'14 7.2 320 / 131015.0 5.4 24.523.813.6
2018-May-24 13:00N 47°36' W 125°18'3210.8 320 / 131013.7 5.4 24.122.613.6
2018-May-24 10:00N 47°06' W 125°00'4 2.6 010 / 81013.0 5.4 24.022.614.0
2018-May-24 08:21N 47°02' W 124°60'3 8.1
2018-May-24 08:01N 46°59' W 124°59'6362.2
2018-May-24 08:00N 46°54' W 124°54'2 4.6 010 / 81012.0 5.4 25.023.614.0
2018-May-24 07:30N 46°56' W 124°56'4 7.8
2018-May-24 06:59N 46°52' W 124°54'4 7.8
2018-May-24 06:30N 46°49' W 124°51'4 7.7
2018-May-24 06:01N 46°46' W 124°48'4 7.6
2018-May-24 05:30N 46°43' W 124°44'4 7.6
2018-May-24 05:01N 46°39' W 124°41'3204.9
2018-May-24 05:00N 46°36' W 124°42'3 5.2 330 / 121011.0 5.4 14.0 12.0
2018-May-24 04:30N 46°36' W 124°38'4 7.8
2018-May-24 04:01N 46°33' W 124°35'6 8.0
2018-May-24 03:17N 46°28' W 124°31'2 8.0
2018-May-24 03:00N 46°26' W 124°29'4 8.1
2018-May-24 02:30N 46°23' W 124°26'4 8.0
2018-May-24 02:01N 46°19' W 124°23'8 8.0
2018-May-24 00:59N 46°14' W 124°14'4 9.0
2018-May-24 00:30N 46°13' W 124°08'5 9.6
2018-May-24 00:00N 46°15' W 124°02'4255.8
2018-May-24 00:00N 46°12' W 124°00'3 5.6 310 / 51008.7 5.4 25.123.615.5
2018-May-23 23:31N 46°12' W 123°56'3 6.5
2018-May-23 23:00N 46°12' W 123°51'0 0.1
2018-May-23 22:29N 46°11' W 123°51'612.1
2018-May-23 22:00N 46°06' W 123°48'6535.7 020 1008.0 5.4 25.023.616.0
2018-May-23 21:59N 46°11' W 123°51'0 0.0
2018-May-23 21:29N 46°11' W 123°51'0 0.0
2018-May-23 20:55N 46°11' W 123°51'0 0.0
2018-May-23 20:29N 46°11' W 123°51'612.3
2018-May-23 20:00N 46°06' W 123°48'6238.1 020 1008.0 5.4 24.022.615.0
2018-May-23 19:58N 46°11' W 123°51'0 0.0
2018-May-23 19:13N 46°11' W 123°51'0 0.0
2018-May-23 18:42N 46°11' W 123°51'0 0.0
2018-May-23 18:12N 46°11' W 123°51'0 0.0
2018-May-23 17:51N 46°11' W 123°51'0 0.0
2018-May-23 17:12N 46°11' W 123°51'0 0.0
2018-May-23 17:00N 46°11' W 123°51'0 0.0
2018-May-23 16:14N 46°11' W 123°51'0 0.0
2018-May-23 15:59N 46°11' W 123°51'0 0.0
2018-May-23 15:26N 46°11' W 123°51'0 0.0
2018-May-23 14:56N 46°11' W 123°51'0 0.0
2018-May-23 14:29N 46°11' W 123°51'0 0.0
2018-May-23 14:01N 46°11' W 123°51'663865.8
2018-May-23 14:00N 45°06' W 123°48'66135.2 300 / 101007.410.8 25.923.315.0
2018-May-23 13:30N 46°11' W 123°52'1310.0
2018-May-23 12:11N 46°10' W 124°10'611.7
2018-May-23 11:41N 46°04' W 124°11'716.1
2018-May-23 11:16N 45°57' W 124°12'416.3
2018-May-23 11:01N 45°53' W 124°13'816.2
2018-May-23 10:31N 45°45' W 124°14'816.0
2018-May-23 10:01N 45°37' W 124°15'7426.0
2018-May-23 10:00N 45°30' W 124°12'3 5.8 020 / 161007.0 5.4 25.023.613.0
2018-May-23 09:31N 45°29' W 124°16'816.3
2018-May-23 09:01N 45°21' W 124°17'10560.9
2018-May-23 09:00N 45°12' W 124°12'5 9.6 020 / 161007.0 5.4 25.023.613.0
2018-May-23 08:31N 45°13' W 124°18'816.0
2018-May-23 08:00N 45°05' W 124°22'815.9
2018-May-23 07:31N 44°58' W 124°26'1019.4
2018-May-23 07:00N 44°48' W 124°24'3706.7 350 / 201008.0 5.4 12.0 12.0
2018-May-23 06:59N 44°50' W 124°28'816.0
2018-May-23 06:30N 44°42' W 124°25'815.8
2018-May-23 06:00N 44°35' W 124°27'1015.7
2018-May-23 05:21N 44°24' W 124°29'515.8
2018-May-23 05:00N 44°19' W 124°30'915.9
2018-May-23 04:28N 44°10' W 124°31'715.9
2018-May-23 04:00N 44°03' W 124°33'815.9
2018-May-23 03:30N 43°55' W 124°35'1016.2
2018-May-23 02:54N 43°46' W 124°36'716.6
2018-May-23 02:30N 43°39' W 124°37'816.9
2018-May-23 02:00N 43°31' W 124°38'1918.5
2018-May-23 01:00N 43°12' W 124°36'4214.1 010 / 271008.1 2.2 25.324.911.4
2018-May-22 22:00N 42°30' W 124°42'3030.0 030 / 151008.0 5.4 26.024.611.0
2018-May-22 21:00N 42°00' W 124°42'6015.0 030 / 151008.0 2.2 26.024.611.0
2018-May-22 17:00N 41°00' W 124°36'3618.0 330 / 251008.0 2.2 10.0 12.0
2018-May-22 15:00N 40°24' W 124°36'2020.2 350 / 351007.0 2.2 24.022.611.1
2018-May-22 14:00N 40°06' W 124°24'6315.7 310 / 351007.8 2.2 24.023.210.5
2018-May-22 10:00N 39°06' W 124°00'2016.6 040 / 171008.0 5.4 24.022.611.0
2018-May-22 08:46N 38°48' W 123°48'417.8
2018-May-22 08:30N 38°44' W 123°45'917.7
2018-May-22 08:00N 38°36' W 123°40'7434.3
2018-May-22 08:00N 38°30' W 123°36'2 3.7 040 / 171007.0 5.4 24.022.612.0
2018-May-22 07:30N 38°29' W 123°34'816.3
2018-May-22 07:00N 38°22' W 123°29'816.6
2018-May-22 06:30N 38°14' W 123°24'713.1
2018-May-22 06:00N 38°09' W 123°20'3258.6
2018-May-22 06:00N 38°06' W 123°18'2 3.8 330 / 391007.0 5.4 10.0 11.0
2018-May-22 05:30N 38°05' W 123°16'5 9.4
2018-May-22 05:00N 38°02' W 123°12'5 9.6
2018-May-22 04:29N 37°58' W 123°08'4 8.6
2018-May-22 04:00N 37°56' W 123°03'4 8.8
2018-May-22 03:30N 37°54' W 122°58'4 9.0
2018-May-22 03:00N 37°52' W 122°53'5 9.1
2018-May-22 02:30N 37°49' W 122°48'611.6
2018-May-22 02:00N 37°46' W 122°42'510.8
2018-May-22 01:30N 37°47' W 122°35'611.2
2018-May-22 01:00N 37°49' W 122°29'198.4
2018-May-22 01:00N 37°48' W 122°30'510.1 300 / 401006.0 5.4 25.823.314.0
2018-May-22 00:30N 37°49' W 122°24'0 0.8
2018-May-21 23:59N 37°48' W 122°24'0 0.0
2018-May-21 23:28N 37°48' W 122°24'0 0.0
2018-May-21 22:58N 37°48' W 122°24'0 0.0
2018-May-21 22:28N 37°48' W 122°24'0 0.6
2018-May-21 22:00N 37°48' W 122°24'010.1 010 1007.0 5.4 25.023.616.0
2018-May-21 21:58N 37°48' W 122°24'0 0.0
2018-May-21 21:28N 37°48' W 122°24'0 0.0
2018-May-21 21:00N 37°48' W 122°24'0 0.0
2018-May-21 20:30N 37°48' W 122°24'0 0.0
2018-May-21 20:00N 37°48' W 122°24'040.4
2018-May-21 20:00N 37°48' W 122°24'0 0.6 010 1007.0 5.4 25.023.615.0
2018-May-21 19:30N 37°48' W 122°24'0 0.0
2018-May-21 18:59N 37°48' W 122°24'0 0.0
2018-May-21 18:29N 37°48' W 122°24'0 0.6
2018-May-21 18:00N 37°48' W 122°24'038.9 300 / 91008.0 5.4 14.0 13.0
2018-May-21 17:59N 37°48' W 122°24'0 0.0
2018-May-21 17:29N 37°48' W 122°24'0 0.0
2018-May-21 16:59N 37°48' W 122°24'0 0.0
2018-May-21 16:28N 37°48' W 122°24'0 0.0
2018-May-21 15:58N 37°48' W 122°24'0 0.0
2018-May-21 15:28N 37°48' W 122°24'0 0.0
2018-May-21 14:58N 37°48' W 122°24'0 0.0
2018-May-21 14:28N 37°48' W 122°24'0 0.6
2018-May-21 14:00N 37°48' W 122°24'0 8.1 270 / 51007.010.8 24.722.314.3
2018-May-21 13:57N 37°48' W 122°24'0 0.0
2018-May-21 13:30N 37°48' W 122°24'0 0.0
2018-May-21 13:00N 37°48' W 122°24'0 0.0
2018-May-21 12:30N 37°48' W 122°24'0 0.0
2018-May-21 11:59N 37°48' W 122°24'0 0.0
2018-May-21 11:29N 37°48' W 122°24'0 0.0
2018-May-21 10:59N 37°48' W 122°24'0 0.0
2018-May-21 10:26N 37°48' W 122°24'0 0.7
2018-May-21 10:00N 37°48' W 122°24'019.1 010 1007.0 5.4 25.023.614.0
2018-May-21 09:59N 37°48' W 122°24'0 0.0
2018-May-21 09:28N 37°48' W 122°24'0 0.6
2018-May-21 09:00N 37°48' W 122°24'0 4.0 360 1007.0 5.4 25.023.614.0
2018-May-21 08:55N 37°48' W 122°24'0 0.0
2018-May-21 08:28N 37°48' W 122°24'0 0.0
2018-May-21 07:58N 37°48' W 122°24'0 0.0
2018-May-21 07:27N 37°48' W 122°24'0 0.0
2018-May-21 07:00N 37°48' W 122°24'141063.3
2018-May-21 07:00N 37°48' W 122°42'1428.9 200 / 61008.0 5.4 10.0 13.0
2018-May-21 06:30N 37°48' W 122°24'0 0.0
2018-May-21 06:00N 37°48' W 122°24'0 0.0
2018-May-21 05:30N 37°48' W 122°24'0 0.0
2018-May-21 04:59N 37°48' W 122°24'0 0.0
2018-May-21 04:29N 37°48' W 122°24'0 0.0
2018-May-21 03:59N 37°48' W 122°24'0 0.0
2018-May-21 03:29N 37°48' W 122°24'0 0.0
2018-May-21 02:59N 37°48' W 122°24'0 0.0
2018-May-21 02:28N 37°48' W 122°24'0 0.6
2018-May-21 02:00N 37°48' W 122°24'0 4.0 280 / 301008.010.8 25.423.514.4
2018-May-21 01:55N 37°48' W 122°24'0 0.0
2018-May-21 01:28N 37°48' W 122°24'0 0.0
2018-May-21 00:58N 37°48' W 122°24'0 0.0
2018-May-21 00:31N 37°48' W 122°24'0 0.0
2018-May-21 00:00N 37°48' W 122°24'0 0.0
2018-May-20 23:30N 37°48' W 122°24'0 0.0
2018-May-20 23:00N 37°48' W 122°24'0 0.0
2018-May-20 22:30N 37°48' W 122°24'0 0.0
2018-May-20 21:59N 37°48' W 122°24'0 0.0
2018-May-20 21:29N 37°48' W 122°24'0 0.6
2018-May-20 21:00N 37°48' W 122°24'035.0 020 1010.0 5.4 25.023.615.0
2018-May-20 20:59N 37°48' W 122°24'0 0.0
2018-May-20 20:29N 37°48' W 122°24'0 0.0
2018-May-20 19:59N 37°48' W 122°24'0 0.0
2018-May-20 19:28N 37°48' W 122°24'0 0.6
2018-May-20 19:00N 37°48' W 122°24'012.4 020 1011.0 5.4 25.023.615.0
2018-May-20 18:58N 37°48' W 122°24'0 0.0
2018-May-20 18:28N 37°48' W 122°24'0 0.0
2018-May-20 17:58N 37°48' W 122°24'0 0.0
2018-May-20 17:30N 37°48' W 122°24'0 0.0
2018-May-20 17:00N 37°48' W 122°24'0 0.0
2018-May-20 16:30N 37°48' W 122°24'0 0.0
2018-May-20 16:00N 37°48' W 122°24'0 0.0
2018-May-20 15:27N 37°48' W 122°24'0 0.0
2018-May-20 14:59N 37°48' W 122°24'0 0.0
2018-May-20 14:30N 37°48' W 122°24'0 0.0
2018-May-20 14:00N 37°48' W 122°24'018.1
2018-May-20 14:00N 37°48' W 122°24'0 0.9 270 / 301011.0 5.4 24.422.413.3
2018-May-20 13:30N 37°48' W 122°24'1 2.6
2018-May-20 13:00N 37°49' W 122°25'5 9.6
2018-May-20 12:30N 37°48' W 122°31'611.2
2018-May-20 12:00N 37°46' W 122°38'611.1
2018-May-20 11:30N 37°43' W 122°44'510.5
2018-May-20 11:00N 37°40' W 122°49'5 9.5
2018-May-20 10:29N 37°37' W 122°54'4 9.3
2018-May-20 10:00N 37°34' W 122°59'443351.6
2018-May-20 10:00N 37°30' W 123°54'4080.3 020 / 101011.0 5.4 24.022.612.0
2018-May-20 09:30N 37°32' W 123°04'510.3
2018-May-20 09:00N 37°28' W 123°09'510.8
2018-May-20 08:30N 37°23' W 123°09'510.4
2018-May-20 08:00N 37°18' W 123°10'3390.1
2018-May-20 08:00N 37°18' W 123°06'4 8.4 030 / 101012.0 5.4 24.022.613.0
2018-May-20 07:30N 37°14' W 123°07'5 9.1
2018-May-20 07:00N 37°10' W 123°04'212778.1
2018-May-20 07:00N 37°06' W 123°30'2341.7 320 / 301012.0 5.4 10.0 12.0
2018-May-20 06:27N 37°05' W 123°01'510.9
2018-May-20 06:00N 37°01' W 122°58'611.1
2018-May-20 05:30N 36°56' W 122°55'1410.5
2018-May-20 04:08N 36°46' W 122°42'211.1
2018-May-20 03:55N 36°45' W 122°40'511.2
2018-May-20 03:30N 36°42' W 122°35'1120.9
2018-May-20 03:00N 36°36' W 122°24'6106.4 300 / 281010.0 5.4 24.022.612.5
2018-May-20 02:56N 36°41' W 122°27'1511.1
2018-May-20 01:34N 36°40' W 122°08'112.1
2018-May-20 01:30N 36°40' W 122°08'612.7
2018-May-20 01:00N 36°40' W 121°60'611.6
2018-May-20 00:30N 36°37' W 121°53'1 1.4
2018-May-20 00:00N 36°37' W 121°53'4 4.2
2018-May-19 23:00N 36°36' W 121°48'0 0.0 270 / 261011.0 5.4 25.023.614.7
2018-May-19 22:00N 36°36' W 121°48'0 0.0 020 1012.0 5.4 25.023.615.0
2018-May-19 21:00N 36°36' W 121°48'0 0.0 010 1012.0 5.4 25.023.615.0
2018-May-19 17:00N 36°36' W 121°48'7 2.1 320 / 121013.0 5.4 14.0 14.0
2018-May-19 13:37N 36°40' W 121°56'2817.1
2018-May-19 12:00N 36°12' W 122°00'2612.9 280 / 351008.0 5.4 21.019.518.2
2018-May-19 10:00N 35°48' W 121°48'2814.1 040 / 161010.0 5.4 24.022.614.0
2018-May-19 08:00N 35°24' W 121°30'41361.8 030 / 151011.0 5.4 24.022.614.0
2018-May-19 07:59N 35°21' W 121°33'715.4
2018-May-19 07:31N 35°14' W 121°29'815.5
2018-May-19 07:00N 35°07' W 121°24'815.9
2018-May-19 06:30N 35°01' W 121°19'816.2
2018-May-19 06:01N 34°54' W 121°13'815.8
2018-May-19 05:31N 34°47' W 121°08'815.9
2018-May-19 05:01N 34°41' W 121°03'816.2
2018-May-19 04:30N 34°34' W 120°58'816.0
2018-May-19 04:01N 34°27' W 120°52'816.0
2018-May-19 03:31N 34°24' W 120°43'816.1
2018-May-19 03:00N 34°22' W 120°34'815.7
2018-May-19 02:30N 34°20' W 120°24'815.7
2018-May-19 01:59N 34°18' W 120°15'816.3
2018-May-19 01:30N 34°19' W 120°06'815.5
2018-May-19 01:00N 34°21' W 119°56'816.0
2018-May-19 00:30N 34°22' W 119°47'510.4
2018-May-19 00:00N 34°24' W 119°41'72099.8
2018-May-19 00:00N 34°18' W 119°36'0 0.0 220 / 71010.010.8 24.022.615.2
2018-May-18 22:00N 34°18' W 119°36'7 4.9 010 1011.0 5.4 25.023.615.0
2018-May-18 20:32N 34°24' W 119°41'0 0.1
2018-May-18 20:23N 34°24' W 119°41'718.1
2018-May-18 20:00N 34°18' W 119°36'7114.6 360 1011.0 5.4 25.023.615.0
2018-May-18 19:56N 34°24' W 119°41'7 3.7
2018-May-18 18:00N 34°18' W 119°36'7 4.1 290 / 51011.0 5.4 15.0 15.0
2018-May-18 16:15N 34°24' W 119°41'0 0.0
2018-May-18 13:39N 34°24' W 119°41'0 0.6
2018-May-18 13:29N 34°24' W 119°41'0 0.8
2018-May-18 12:58N 34°23' W 119°41'610.8
2018-May-18 12:26N 34°18' W 119°39'1431.9
2018-May-18 12:00N 34°06' W 119°30'8243.2 250 / 151009.0 5.4 21.019.518.3
2018-May-18 11:58N 34°13' W 119°35'813.8
2018-May-18 11:23N 34°08' W 119°27'513.5
2018-May-18 11:00N 34°06' W 119°21'612.8
2018-May-18 10:30N 34°04' W 119°14'4 8.3
2018-May-18 10:00N 34°00' W 119°12'5419.8 010 / 131010.0 5.4 25.023.615.0
2018-May-18 09:59N 34°00' W 119°07'713.8
2018-May-18 09:30N 33°57' W 118°60'713.7
2018-May-18 09:00N 33°54' W 118°53'7484.5
2018-May-18 09:00N 33°48' W 118°48'3 6.4 010 / 141010.0 5.4 25.023.616.0
2018-May-18 08:30N 33°50' W 118°45'713.5
2018-May-18 08:00N 33°47' W 118°38'2019.8
2018-May-18 07:00N 33°36' W 118°18'62266.1 300 / 101011.0 5.4 16.0 16.0
2018-May-18 06:59N 33°40' W 118°24'613.0
2018-May-18 06:31N 33°38' W 118°17'611.7
2018-May-18 06:00N 33°36' W 118°10'915.0
2018-May-18 05:24N 33°28' W 118°06'816.2
2018-May-18 04:53N 33°20' W 118°03'616.5
2018-May-18 04:31N 33°14' W 117°59'816.3
2018-May-18 04:00N 33°08' W 117°53'816.4
2018-May-18 03:30N 33°01' W 117°48'816.0
2018-May-18 03:00N 32°54' W 117°42'816.0
2018-May-18 02:31N 32°48' W 117°36'816.0
2018-May-18 02:01N 32°42' W 117°31'815.8
2018-May-18 01:31N 32°39' W 117°22'9 6.0
2018-May-18 00:00N 32°42' W 117°12'5 2.5 200 / 131012.0 5.4 25.122.118.5
2018-May-17 22:00N 32°42' W 117°06'12040.0 010 1012.0 5.4 25.023.619.0
2018-May-17 19:00N 30°42' W 117°06'12020.0 200 / 61013.0 5.4 19.0 19.0
2018-May-17 13:00N 32°42' W 117°06'7 7.0 360 1011.0 5.4 25.023.618.0
2018-May-17 11:56N 32°38' W 117°13'11519.3
2018-May-17 06:00N 30°48' W 116°36'   330 / 321011.0 5.4 15.0 17.0
Track history (hours):
 
Tides and Currents Weather Stations Pressure Air Temp Water Temp Dewpoint Dewpoint Depression Visibility Wind Speed Wind Dir Waves Ship Positions

Celebrity Infinity

Last reported at 2018-May-27 03:31 UTC. Time now 2018-May-27 03:37 UTC.
Position N 48°34' W 123°13'.

Length 294 m; draft 8.3 m.

Type: Ship. MMSI: 249048000.

Date/timePositionNaut miles runAvg speedWind from/ knotsBaromVisibWave heightAir tempDewpointWater temp
2018-May-27 03:31N 48°34' W 123°13'4 8.9
2018-May-27 03:00N 48°30' W 123°11'610.8
2018-May-27 02:30N 48°24' W 123°11'510.9
2018-May-27 02:00N 48°22' W 123°18'2 0.4
2018-May-26 21:00N 48°24' W 123°18'0 0.0 020 1017.0 5.4 25.023.611.0
2018-May-26 19:00N 48°24' W 123°18'4 0.9 220 / 151017.0 5.4 10.0 10.0
2018-May-26 14:45N 48°25' W 123°23'0 0.0
2018-May-26 14:29N 48°25' W 123°23'1 2.4
2018-May-26 14:00N 48°24' W 123°25'4 7.4
2018-May-26 13:30N 48°20' W 123°24'4 7.8
2018-May-26 13:00N 48°17' W 123°26'4 7.5
2018-May-26 12:30N 48°13' W 123°29'3 5.7
2018-May-26 11:58N 48°13' W 123°33'3 5.7
2018-May-26 11:26N 48°14' W 123°38'3 6.2
2018-May-26 10:54N 48°14' W 123°43'2 6.1
2018-May-26 10:30N 48°14' W 123°46'3 6.7
2018-May-26 10:00N 48°12' W 123°42'6678.9 020 / 61016.0 5.4 25.023.610.0
2018-May-26 09:59N 48°14' W 123°51'3 5.3
2018-May-26 09:29N 48°14' W 123°55'3 5.6
2018-May-26 08:57N 48°15' W 123°59'3 5.5
2018-May-26 08:29N 48°17' W 123°58'816.7
2018-May-26 08:00N 48°12' W 123°48'688.0 020 / 61015.0 5.4 24.022.610.0
2018-May-26 07:55N 48°17' W 123°53'3 5.8
2018-May-26 07:29N 48°17' W 123°49'17 7.0
2018-May-26 05:00N 48°12' W 123°24'1 1.5 290 / 201014.0 5.4 10.0 10.0
2018-May-26 04:34N 48°12' W 123°25'0 5.8
2018-May-26 04:30N 48°12' W 123°24'3 5.7
2018-May-26 03:57N 48°10' W 123°21'910.8
2018-May-26 03:08N 48°12' W 123°08'319.0
2018-May-26 02:59N 48°12' W 123°04'2020.1
2018-May-26 02:00N 48°06' W 122°36'526.1 290 / 301012.010.8 25.123.611.4
2018-May-26 01:48N 48°01' W 122°37'621.1
2018-May-26 01:30N 47°56' W 122°31'1019.9
2018-May-26 01:00N 47°47' W 122°26'5317.9
2018-May-26 01:00N 47°42' W 122°24'4 8.8 300 / 181012.010.8 25.023.612.6
2018-May-26 00:30N 47°38' W 122°26'3 6.4
2018-May-25 23:58N 47°37' W 122°21'0 0.0
2018-May-25 23:28N 47°37' W 122°21'0 0.0
2018-May-25 22:58N 47°37' W 122°21'0 0.0
2018-May-25 22:30N 47°37' W 122°21'0 0.0
2018-May-25 22:00N 47°37' W 122°21'2185.7
2018-May-25 22:00N 47°36' W 122°18'2 4.5 010 1013.0 5.4 26.024.612.0
2018-May-25 21:30N 47°37' W 122°21'0 0.0
2018-May-25 21:00N 47°37' W 122°21'0 0.0
2018-May-25 20:30N 47°37' W 122°21'0 0.0
2018-May-25 19:59N 47°37' W 122°21'0 0.0
2018-May-25 19:29N 47°37' W 122°21'2 4.5
2018-May-25 19:00N 47°36' W 122°18'2221.8 270 / 51013.0 5.4 11.0 12.0
2018-May-25 18:59N 47°37' W 122°21'0 0.0
2018-May-25 18:29N 47°37' W 122°21'0 0.0
2018-May-25 17:58N 47°37' W 122°21'0 0.0
2018-May-25 17:25N 47°37' W 122°21'0 0.0
2018-May-25 16:58N 47°37' W 122°21'0 0.0
2018-May-25 16:28N 47°37' W 122°21'0 0.0
2018-May-25 15:58N 47°37' W 122°21'0 0.0
2018-May-25 15:30N 47°37' W 122°21'0 0.0
2018-May-25 15:00N 47°37' W 122°21'0 0.0
2018-May-25 14:30N 47°37' W 122°21'0 0.0
2018-May-25 14:00N 47°37' W 122°21'0 0.0
2018-May-25 13:30N 47°37' W 122°21'1 2.2
2018-May-25 13:00N 47°36' W 122°23'5 9.5
2018-May-25 12:30N 47°39' W 122°28'5 9.4
2018-May-25 12:00N 47°44' W 122°27'8512.1
2018-May-25 12:00N 47°36' W 122°24'1327.7 290 / 101013.410.8 24.223.912.9
2018-May-25 11:30N 47°49' W 122°28'510.8
2018-May-25 11:00N 47°54' W 122°30'510.1
2018-May-25 10:28N 47°58' W 122°36'511.1
2018-May-25 10:00N 48°03' W 122°39'910.1
2018-May-25 09:04N 48°10' W 122°48'1 9.9
2018-May-25 09:00N 48°10' W 122°49'6459.3
2018-May-25 09:00N 48°06' W 122°42'1122.2 010 / 111013.0 5.4 24.022.611.0
2018-May-25 08:30N 48°11' W 122°57'611.4
2018-May-25 08:00N 48°06' W 123°00'783.0 030 / 101013.0 5.4 24.022.611.0
2018-May-25 07:54N 48°12' W 123°06'610.6
2018-May-25 07:20N 48°11' W 123°15'410.8
2018-May-25 06:57N 48°10' W 123°21'12 7.4
2018-May-25 05:17N 48°13' W 123°39'3 9.0
2018-May-25 05:00N 48°12' W 123°42'216.5 290 / 261014.0 5.4 10.0 10.0
2018-May-25 04:53N 48°13' W 123°44'5 8.5
2018-May-25 04:18N 48°13' W 123°51'3 8.6
2018-May-25 04:00N 48°14' W 123°55'4 8.7
2018-May-25 03:29N 48°15' W 124°01'4 8.3
2018-May-25 03:00N 48°17' W 124°07'52298.8
2018-May-25 03:00N 48°12' W 124°06'816.1 350 / 501014.8 5.4 25.523.415.2
2018-May-25 02:30N 48°19' W 124°12'4 8.5
2018-May-25 02:00N 48°20' W 124°18'4 8.5
2018-May-25 01:30N 48°22' W 124°24'4 8.5
2018-May-25 01:00N 48°24' W 124°30'4 8.0
2018-May-25 00:30N 48°26' W 124°35'4 7.5
2018-May-25 00:00N 48°27' W 124°40'4 7.9
2018-May-24 23:30N 48°29' W 124°46'4 8.0
2018-May-24 23:00N 48°29' W 124°52'5955.0
2018-May-24 23:00N 48°24' W 124°54'510.8 010 / 71016.0 5.4 25.023.611.0
2018-May-24 22:30N 48°29' W 124°58'4 7.9
2018-May-24 22:00N 48°29' W 125°04'5292.5
2018-May-24 22:00N 48°24' W 125°06'5 9.4 010 / 71016.0 5.4 25.023.612.0
2018-May-24 21:28N 48°28' W 125°10'4 7.7
2018-May-24 21:00N 48°27' W 125°15'4 7.8
2018-May-24 20:30N 48°25' W 125°20'4 8.4
2018-May-24 20:00N 48°23' W 125°25'4 8.8
2018-May-24 19:30N 48°20' W 125°31'4 8.9
2018-May-24 19:00N 48°19' W 125°37'7611.7
2018-May-24 19:00N 48°12' W 125°36'713.7 300 / 151016.0 5.4 12.0 13.0
2018-May-24 18:30N 48°17' W 125°43'4 6.7
2018-May-24 17:58N 48°13' W 125°45'4 7.6
2018-May-24 17:29N 48°10' W 125°42'23 9.4
2018-May-24 15:00N 47°48' W 125°30'14 7.2 320 / 131015.0 5.4 24.523.813.6
2018-May-24 13:00N 47°36' W 125°18'3210.8 320 / 131013.7 5.4 24.122.613.6
2018-May-24 10:00N 47°06' W 125°00'4 2.6 010 / 81013.0 5.4 24.022.614.0
2018-May-24 08:21N 47°02' W 124°60'3 8.1
2018-May-24 08:01N 46°59' W 124°59'6362.2
2018-May-24 08:00N 46°54' W 124°54'2 4.6 010 / 81012.0 5.4 25.023.614.0
2018-May-24 07:30N 46°56' W 124°56'4 7.8
2018-May-24 06:59N 46°52' W 124°54'4 7.8
2018-May-24 06:30N 46°49' W 124°51'4 7.7
2018-May-24 06:01N 46°46' W 124°48'4 7.6
2018-May-24 05:30N 46°43' W 124°44'4 7.6
2018-May-24 05:01N 46°39' W 124°41'3204.9
2018-May-24 05:00N 46°36' W 124°42'3 5.2 330 / 121011.0 5.4 14.0 12.0
2018-May-24 04:30N 46°36' W 124°38'4 7.8
2018-May-24 04:01N 46°33' W 124°35'6 8.0
2018-May-24 03:17N 46°28' W 124°31'2 8.0
2018-May-24 03:00N 46°26' W 124°29'4 8.1
2018-May-24 02:30N 46°23' W 124°26'4 8.0
2018-May-24 02:01N 46°19' W 124°23'8 8.0
2018-May-24 00:59N 46°14' W 124°14'4 9.0
2018-May-24 00:30N 46°13' W 124°08'5 9.6
2018-May-24 00:00N 46°15' W 124°02'4255.8
2018-May-24 00:00N 46°12' W 124°00'3 5.6 310 / 51008.7 5.4 25.123.615.5
2018-May-23 23:31N 46°12' W 123°56'3 6.5
2018-May-23 23:00N 46°12' W 123°51'0 0.1
2018-May-23 22:29N 46°11' W 123°51'612.1
2018-May-23 22:00N 46°06' W 123°48'6535.7 020 1008.0 5.4 25.023.616.0
2018-May-23 21:59N 46°11' W 123°51'0 0.0
2018-May-23 21:29N 46°11' W 123°51'0 0.0
2018-May-23 20:55N 46°11' W 123°51'0 0.0
2018-May-23 20:29N 46°11' W 123°51'612.3
2018-May-23 20:00N 46°06' W 123°48'6238.1 020 1008.0 5.4 24.022.615.0
2018-May-23 19:58N 46°11' W 123°51'0 0.0
2018-May-23 19:13N 46°11' W 123°51'0 0.0
2018-May-23 18:42N 46°11' W 123°51'0 0.0
2018-May-23 18:12N 46°11' W 123°51'0 0.0
2018-May-23 17:51N 46°11' W 123°51'0 0.0
2018-May-23 17:12N 46°11' W 123°51'0 0.0
2018-May-23 17:00N 46°11' W 123°51'0 0.0
2018-May-23 16:14N 46°11' W 123°51'0 0.0
2018-May-23 15:59N 46°11' W 123°51'0 0.0
2018-May-23 15:26N 46°11' W 123°51'0 0.0
2018-May-23 14:56N 46°11' W 123°51'0 0.0
2018-May-23 14:29N 46°11' W 123°51'0 0.0
2018-May-23 14:01N 46°11' W 123°51'663865.8
2018-May-23 14:00N 45°06' W 123°48'66135.2 300 / 101007.410.8 25.923.315.0
2018-May-23 13:30N 46°11' W 123°52'1310.0
2018-May-23 12:11N 46°10' W 124°10'611.7
2018-May-23 11:41N 46°04' W 124°11'716.1
2018-May-23 11:16N 45°57' W 124°12'416.3
2018-May-23 11:01N 45°53' W 124°13'816.2
2018-May-23 10:31N 45°45' W 124°14'816.0
2018-May-23 10:01N 45°37' W 124°15'7426.0
2018-May-23 10:00N 45°30' W 124°12'3 5.8 020 / 161007.0 5.4 25.023.613.0
2018-May-23 09:31N 45°29' W 124°16'816.3
2018-May-23 09:01N 45°21' W 124°17'10560.9
2018-May-23 09:00N 45°12' W 124°12'5 9.6 020 / 161007.0 5.4 25.023.613.0
2018-May-23 08:31N 45°13' W 124°18'816.0
2018-May-23 08:00N 45°05' W 124°22'815.9
2018-May-23 07:31N 44°58' W 124°26'1019.4
2018-May-23 07:00N 44°48' W 124°24'3706.7 350 / 201008.0 5.4 12.0 12.0
2018-May-23 06:59N 44°50' W 124°28'816.0
2018-May-23 06:30N 44°42' W 124°25'815.8
2018-May-23 06:00N 44°35' W 124°27'1015.7
2018-May-23 05:21N 44°24' W 124°29'515.8
2018-May-23 05:00N 44°19' W 124°30'915.9
2018-May-23 04:28N 44°10' W 124°31'715.9
2018-May-23 04:00N 44°03' W 124°33'815.9
2018-May-23 03:30N 43°55' W 124°35'1016.2
2018-May-23 02:54N 43°46' W 124°36'716.6
2018-May-23 02:30N 43°39' W 124°37'816.9
2018-May-23 02:00N 43°31' W 124°38'1918.5
2018-May-23 01:00N 43°12' W 124°36'4214.1 010 / 271008.1 2.2 25.324.911.4
2018-May-22 22:00N 42°30' W 124°42'3030.0 030 / 151008.0 5.4 26.024.611.0
2018-May-22 21:00N 42°00' W 124°42'6015.0 030 / 151008.0 2.2 26.024.611.0
2018-May-22 17:00N 41°00' W 124°36'3618.0 330 / 251008.0 2.2 10.0 12.0
2018-May-22 15:00N 40°24' W 124°36'2020.2 350 / 351007.0 2.2 24.022.611.1
2018-May-22 14:00N 40°06' W 124°24'6315.7 310 / 351007.8 2.2 24.023.210.5
2018-May-22 10:00N 39°06' W 124°00'2016.6 040 / 171008.0 5.4 24.022.611.0
2018-May-22 08:46N 38°48' W 123°48'417.8
2018-May-22 08:30N 38°44' W 123°45'917.7
2018-May-22 08:00N 38°36' W 123°40'7434.3
2018-May-22 08:00N 38°30' W 123°36'2 3.7 040 / 171007.0 5.4 24.022.612.0
2018-May-22 07:30N 38°29' W 123°34'816.3
2018-May-22 07:00N 38°22' W 123°29'816.6
2018-May-22 06:30N 38°14' W 123°24'713.1
2018-May-22 06:00N 38°09' W 123°20'3258.6
2018-May-22 06:00N 38°06' W 123°18'2 3.8 330 / 391007.0 5.4 10.0 11.0
2018-May-22 05:30N 38°05' W 123°16'5 9.4
2018-May-22 05:00N 38°02' W 123°12'5 9.6
2018-May-22 04:29N 37°58' W 123°08'4 8.6
2018-May-22 04:00N 37°56' W 123°03'4 8.8
2018-May-22 03:30N 37°54' W 122°58'4 9.0
2018-May-22 03:00N 37°52' W 122°53'5 9.1
2018-May-22 02:30N 37°49' W 122°48'611.6
2018-May-22 02:00N 37°46' W 122°42'510.8
2018-May-22 01:30N 37°47' W 122°35'611.2
2018-May-22 01:00N 37°49' W 122°29'198.4
2018-May-22 01:00N 37°48' W 122°30'510.1 300 / 401006.0 5.4 25.823.314.0
2018-May-22 00:30N 37°49' W 122°24'0 0.8
2018-May-21 23:59N 37°48' W 122°24'0 0.0
2018-May-21 23:28N 37°48' W 122°24'0 0.0
2018-May-21 22:58N 37°48' W 122°24'0 0.0
2018-May-21 22:28N 37°48' W 122°24'0 0.6
2018-May-21 22:00N 37°48' W 122°24'010.1 010 1007.0 5.4 25.023.616.0
2018-May-21 21:58N 37°48' W 122°24'0 0.0
2018-May-21 21:28N 37°48' W 122°24'0 0.0
2018-May-21 21:00N 37°48' W 122°24'0 0.0
2018-May-21 20:30N 37°48' W 122°24'0 0.0
2018-May-21 20:00N 37°48' W 122°24'040.4
2018-May-21 20:00N 37°48' W 122°24'0 0.6 010 1007.0 5.4 25.023.615.0
2018-May-21 19:30N 37°48' W 122°24'0 0.0
2018-May-21 18:59N 37°48' W 122°24'0 0.0
2018-May-21 18:29N 37°48' W 122°24'0 0.6
2018-May-21 18:00N 37°48' W 122°24'038.9 300 / 91008.0 5.4 14.0 13.0
2018-May-21 17:59N 37°48' W 122°24'0 0.0
2018-May-21 17:29N 37°48' W 122°24'0 0.0
2018-May-21 16:59N 37°48' W 122°24'0 0.0
2018-May-21 16:28N 37°48' W 122°24'0 0.0
2018-May-21 15:58N 37°48' W 122°24'0 0.0
2018-May-21 15:28N 37°48' W 122°24'0 0.0
2018-May-21 14:58N 37°48' W 122°24'0 0.0
2018-May-21 14:28N 37°48' W 122°24'0 0.6
2018-May-21 14:00N 37°48' W 122°24'0 8.1 270 / 51007.010.8 24.722.314.3
2018-May-21 13:57N 37°48' W 122°24'0 0.0
2018-May-21 13:30N 37°48' W 122°24'0 0.0
2018-May-21 13:00N 37°48' W 122°24'0 0.0
2018-May-21 12:30N 37°48' W 122°24'0 0.0
2018-May-21 11:59N 37°48' W 122°24'0 0.0
2018-May-21 11:29N 37°48' W 122°24'0 0.0
2018-May-21 10:59N 37°48' W 122°24'0 0.0
2018-May-21 10:26N 37°48' W 122°24'0 0.7
2018-May-21 10:00N 37°48' W 122°24'019.1 010 1007.0 5.4 25.023.614.0
2018-May-21 09:59N 37°48' W 122°24'0 0.0
2018-May-21 09:28N 37°48' W 122°24'0 0.6
2018-May-21 09:00N 37°48' W 122°24'0 4.0 360 1007.0 5.4 25.023.614.0
2018-May-21 08:55N 37°48' W 122°24'0 0.0
2018-May-21 08:28N 37°48' W 122°24'0 0.0
2018-May-21 07:58N 37°48' W 122°24'0 0.0
2018-May-21 07:27N 37°48' W 122°24'0 0.0
2018-May-21 07:00N 37°48' W 122°24'141063.3
2018-May-21 07:00N 37°48' W 122°42'1428.9 200 / 61008.0 5.4 10.0 13.0
2018-May-21 06:30N 37°48' W 122°24'0 0.0
2018-May-21 06:00N 37°48' W 122°24'0 0.0
2018-May-21 05:30N 37°48' W 122°24'0 0.0
2018-May-21 04:59N 37°48' W 122°24'0 0.0
2018-May-21 04:29N 37°48' W 122°24'0 0.0
2018-May-21 03:59N 37°48' W 122°24'0 0.0
2018-May-21 03:29N 37°48' W 122°24'0 0.0
2018-May-21 02:59N 37°48' W 122°24'0 0.0
2018-May-21 02:28N 37°48' W 122°24'0 0.6
2018-May-21 02:00N 37°48' W 122°24'0 4.0 280 / 301008.010.8 25.423.514.4
2018-May-21 01:55N 37°48' W 122°24'0 0.0
2018-May-21 01:28N 37°48' W 122°24'0 0.0
2018-May-21 00:58N 37°48' W 122°24'0 0.0
2018-May-21 00:31N 37°48' W 122°24'0 0.0
2018-May-21 00:00N 37°48' W 122°24'0 0.0
2018-May-20 23:30N 37°48' W 122°24'0 0.0
2018-May-20 23:00N 37°48' W 122°24'0 0.0
2018-May-20 22:30N 37°48' W 122°24'0 0.0
2018-May-20 21:59N 37°48' W 122°24'0 0.0
2018-May-20 21:29N 37°48' W 122°24'0 0.6
2018-May-20 21:00N 37°48' W 122°24'035.0 020 1010.0 5.4 25.023.615.0
2018-May-20 20:59N 37°48' W 122°24'0 0.0
2018-May-20 20:29N 37°48' W 122°24'0 0.0
2018-May-20 19:59N 37°48' W 122°24'0 0.0
2018-May-20 19:28N 37°48' W 122°24'0 0.6
2018-May-20 19:00N 37°48' W 122°24'012.4 020 1011.0 5.4 25.023.615.0
2018-May-20 18:58N 37°48' W 122°24'0 0.0
2018-May-20 18:28N 37°48' W 122°24'0 0.0
2018-May-20 17:58N 37°48' W 122°24'0 0.0
2018-May-20 17:30N 37°48' W 122°24'0 0.0
2018-May-20 17:00N 37°48' W 122°24'0 0.0
2018-May-20 16:30N 37°48' W 122°24'0 0.0
2018-May-20 16:00N 37°48' W 122°24'0 0.0
2018-May-20 15:27N 37°48' W 122°24'0 0.0
2018-May-20 14:59N 37°48' W 122°24'0 0.0
2018-May-20 14:30N 37°48' W 122°24'0 0.0
2018-May-20 14:00N 37°48' W 122°24'018.1
2018-May-20 14:00N 37°48' W 122°24'0 0.9 270 / 301011.0 5.4 24.422.413.3
2018-May-20 13:30N 37°48' W 122°24'1 2.6
2018-May-20 13:00N 37°49' W 122°25'5 9.6
2018-May-20 12:30N 37°48' W 122°31'611.2
2018-May-20 12:00N 37°46' W 122°38'611.1
2018-May-20 11:30N 37°43' W 122°44'510.5
2018-May-20 11:00N 37°40' W 122°49'5 9.5
2018-May-20 10:29N 37°37' W 122°54'4 9.3
2018-May-20 10:00N 37°34' W 122°59'443351.6
2018-May-20 10:00N 37°30' W 123°54'4080.3 020 / 101011.0 5.4 24.022.612.0
2018-May-20 09:30N 37°32' W 123°04'510.3
2018-May-20 09:00N 37°28' W 123°09'510.8
2018-May-20 08:30N 37°23' W 123°09'510.4
2018-May-20 08:00N 37°18' W 123°10'3390.1
2018-May-20 08:00N 37°18' W 123°06'4 8.4 030 / 101012.0 5.4 24.022.613.0
2018-May-20 07:30N 37°14' W 123°07'5 9.1
2018-May-20 07:00N 37°10' W 123°04'212778.1
2018-May-20 07:00N 37°06' W 123°30'2341.7 320 / 301012.0 5.4 10.0 12.0
2018-May-20 06:27N 37°05' W 123°01'510.9
2018-May-20 06:00N 37°01' W 122°58'611.1
2018-May-20 05:30N 36°56' W 122°55'1410.5
2018-May-20 04:08N 36°46' W 122°42'211.1
2018-May-20 03:55N 36°45' W 122°40'511.2
2018-May-20 03:30N 36°42' W 122°35'1120.9
2018-May-20 03:00N 36°36' W 122°24'6106.4 300 / 281010.0 5.4 24.022.612.5
2018-May-20 02:56N 36°41' W 122°27'1511.1
2018-May-20 01:34N 36°40' W 122°08'112.1
2018-May-20 01:30N 36°40' W 122°08'612.7
2018-May-20 01:00N 36°40' W 121°60'611.6
2018-May-20 00:30N 36°37' W 121°53'1 1.4
2018-May-20 00:00N 36°37' W 121°53'4 4.2
2018-May-19 23:00N 36°36' W 121°48'0 0.0 270 / 261011.0 5.4 25.023.614.7
2018-May-19 22:00N 36°36' W 121°48'0 0.0 020 1012.0 5.4 25.023.615.0
2018-May-19 21:00N 36°36' W 121°48'0 0.0 010 1012.0 5.4 25.023.615.0
2018-May-19 17:00N 36°36' W 121°48'7 2.1 320 / 121013.0 5.4 14.0 14.0
2018-May-19 13:37N 36°40' W 121°56'2817.1
2018-May-19 12:00N 36°12' W 122°00'2612.9 280 / 351008.0 5.4 21.019.518.2
2018-May-19 10:00N 35°48' W 121°48'2814.1 040 / 161010.0 5.4 24.022.614.0
2018-May-19 08:00N 35°24' W 121°30'41361.8 030 / 151011.0 5.4 24.022.614.0
2018-May-19 07:59N 35°21' W 121°33'715.4
2018-May-19 07:31N 35°14' W 121°29'815.5
2018-May-19 07:00N 35°07' W 121°24'815.9
2018-May-19 06:30N 35°01' W 121°19'816.2
2018-May-19 06:01N 34°54' W 121°13'815.8
2018-May-19 05:31N 34°47' W 121°08'815.9
2018-May-19 05:01N 34°41' W 121°03'816.2
2018-May-19 04:30N 34°34' W 120°58'816.0
2018-May-19 04:01N 34°27' W 120°52'816.0
2018-May-19 03:31N 34°24' W 120°43'816.1
2018-May-19 03:00N 34°22' W 120°34'815.7
2018-May-19 02:30N 34°20' W 120°24'815.7
2018-May-19 01:59N 34°18' W 120°15'816.3
2018-May-19 01:30N 34°19' W 120°06'815.5
2018-May-19 01:00N 34°21' W 119°56'816.0
2018-May-19 00:30N 34°22' W 119°47'510.4
2018-May-19 00:00N 34°24' W 119°41'72099.8
2018-May-19 00:00N 34°18' W 119°36'0 0.0 220 / 71010.010.8 24.022.615.2
2018-May-18 22:00N 34°18' W 119°36'7 4.9 010 1011.0 5.4 25.023.615.0
2018-May-18 20:32N 34°24' W 119°41'0 0.1
2018-May-18 20:23N 34°24' W 119°41'718.1
2018-May-18 20:00N 34°18' W 119°36'7114.6 360 1011.0 5.4 25.023.615.0
2018-May-18 19:56N 34°24' W 119°41'7 3.7
2018-May-18 18:00N 34°18' W 119°36'7 4.1 290 / 51011.0 5.4 15.0 15.0
2018-May-18 16:15N 34°24' W 119°41'0 0.0
2018-May-18 13:39N 34°24' W 119°41'0 0.6
2018-May-18 13:29N 34°24' W 119°41'0 0.8
2018-May-18 12:58N 34°23' W 119°41'610.8
2018-May-18 12:26N 34°18' W 119°39'1431.9
2018-May-18 12:00N 34°06' W 119°30'8243.2 250 / 151009.0 5.4 21.019.518.3
2018-May-18 11:58N 34°13' W 119°35'813.8
2018-May-18 11:23N 34°08' W 119°27'513.5
2018-May-18 11:00N 34°06' W 119°21'612.8
2018-May-18 10:30N 34°04' W 119°14'4 8.3
2018-May-18 10:00N 34°00' W 119°12'5419.8 010 / 131010.0 5.4 25.023.615.0
2018-May-18 09:59N 34°00' W 119°07'713.8
2018-May-18 09:30N 33°57' W 118°60'713.7
2018-May-18 09:00N 33°54' W 118°53'7484.5
2018-May-18 09:00N 33°48' W 118°48'3 6.4 010 / 141010.0 5.4 25.023.616.0
2018-May-18 08:30N 33°50' W 118°45'713.5
2018-May-18 08:00N 33°47' W 118°38'2019.8
2018-May-18 07:00N 33°36' W 118°18'62266.1 300 / 101011.0 5.4 16.0 16.0
2018-May-18 06:59N 33°40' W 118°24'613.0
2018-May-18 06:31N 33°38' W 118°17'611.7
2018-May-18 06:00N 33°36' W 118°10'915.0
2018-May-18 05:24N 33°28' W 118°06'816.2
2018-May-18 04:53N 33°20' W 118°03'616.5
2018-May-18 04:31N 33°14' W 117°59'816.3
2018-May-18 04:00N 33°08' W 117°53'816.4
2018-May-18 03:30N 33°01' W 117°48'816.0
2018-May-18 03:00N 32°54' W 117°42'816.0
2018-May-18 02:31N 32°48' W 117°36'816.0
2018-May-18 02:01N 32°42' W 117°31'815.8
2018-May-18 01:31N 32°39' W 117°22'9 6.0
2018-May-18 00:00N 32°42' W 117°12'5 2.5 200 / 131012.0 5.4 25.122.118.5
2018-May-17 22:00N 32°42' W 117°06'12040.0 010 1012.0 5.4 25.023.619.0
2018-May-17 19:00N 30°42' W 117°06'12020.0 200 / 61013.0 5.4 19.0 19.0
2018-May-17 13:00N 32°42' W 117°06'7 7.0 360 1011.0 5.4 25.023.618.0
2018-May-17 11:56N 32°38' W 117°13'11519.3
2018-May-17 06:00N 30°48' W 116°36'   330 / 321011.0 5.4 15.0 17.0

Dump ship's entire track history